createdAt,value
2023-04-11T00:00:13.588Z,9.55
2023-04-11T00:03:17.048Z,9.15
2023-04-11T00:06:19.718Z,8.80
2023-04-11T00:09:22.173Z,8.10
2023-04-11T00:12:24.670Z,8.82
2023-04-11T00:15:27.120Z,10.00
2023-04-11T00:18:29.579Z,9.40
2023-04-11T00:21:32.109Z,9.65
2023-04-11T00:24:34.525Z,9.57
2023-04-11T00:27:36.954Z,8.25
2023-04-11T00:30:39.398Z,8.20
2023-04-11T00:33:42.217Z,10.20
2023-04-11T00:36:44.744Z,9.23
2023-04-11T00:39:50.711Z,8.98
2023-04-11T00:42:53.078Z,9.80
2023-04-11T00:45:55.570Z,8.97
2023-04-11T00:48:58.706Z,11.45
2023-04-11T00:52:01.960Z,9.85
2023-04-11T00:55:04.613Z,9.18
2023-04-11T00:58:08.199Z,9.77
2023-04-11T01:01:10.738Z,9.25
2023-04-11T01:04:13.604Z,10.40
2023-04-11T01:07:17.429Z,8.50
2023-04-11T01:10:19.907Z,8.98
2023-04-11T01:13:22.455Z,8.85
2023-04-11T01:16:25.001Z,9.63
2023-04-11T01:19:27.722Z,7.80
2023-04-11T01:22:30.696Z,12.05
2023-04-11T01:25:33.350Z,12.57
2023-04-11T01:28:36.008Z,9.20
2023-04-11T01:31:40.104Z,10.27
2023-04-11T01:34:43.150Z,10.65
2023-04-11T01:37:46.029Z,11.87
2023-04-11T01:40:48.830Z,9.75
2023-04-11T01:43:51.331Z,9.23
2023-04-11T01:46:54.018Z,8.13
2023-04-11T01:49:57.861Z,8.88
2023-04-11T01:53:00.616Z,7.72
2023-04-11T01:56:05.292Z,10.05
2023-04-11T01:59:07.834Z,8.18
2023-04-11T02:02:11.231Z,9.75
2023-04-11T02:05:13.786Z,8.25
2023-04-11T02:08:16.274Z,10.17
2023-04-11T02:11:18.863Z,10.55
2023-04-11T02:14:25.323Z,10.18
2023-04-11T02:17:31.206Z,8.27
2023-04-11T02:20:33.736Z,10.80
2023-04-11T02:23:36.648Z,10.88
2023-04-11T02:26:41.127Z,10.98
2023-04-11T02:29:43.964Z,10.20
2023-04-11T02:32:46.744Z,11.85
2023-04-11T02:35:50.027Z,8.88
2023-04-11T02:38:52.561Z,7.93
2023-04-11T02:41:54.931Z,9.75
2023-04-11T02:44:57.388Z,10.05
2023-04-11T02:48:03.534Z,10.30
2023-04-11T02:51:08.669Z,9.35
2023-04-11T02:54:11.856Z,12.07
2023-04-11T02:57:14.346Z,11.05
2023-04-11T03:00:19.276Z,8.73
2023-04-11T03:03:30.514Z,9.38
2023-04-11T03:06:33.365Z,8.73
2023-04-11T03:09:37.265Z,9.27
2023-04-11T03:12:41.656Z,10.02
2023-04-11T03:15:46.872Z,11.27
2023-04-11T03:18:50.146Z,10.20
2023-04-11T03:21:53.146Z,9.82
2023-04-11T03:24:56.029Z,9.55
2023-04-11T03:27:59.406Z,9.48
2023-04-11T03:31:02.426Z,7.93
2023-04-11T03:34:04.907Z,7.78
2023-04-11T03:37:07.383Z,8.93
2023-04-11T03:40:12.458Z,10.97
2023-04-11T03:43:19.446Z,9.25
2023-04-11T03:46:22.339Z,9.23
2023-04-11T03:49:25.457Z,8.70
2023-04-11T03:52:31.541Z,9.35
2023-04-11T03:55:34.581Z,8.15
2023-04-11T03:58:39.293Z,9.07
2023-04-11T04:01:41.859Z,7.68
2023-04-11T04:04:55.003Z,9.15
2023-04-11T04:08:01.472Z,8.93
2023-04-11T04:11:16.426Z,8.97
2023-04-11T04:14:20.019Z,8.50
2023-04-11T04:17:24.025Z,8.45
2023-04-11T04:20:27.055Z,9.70
2023-04-11T04:23:33.385Z,7.80
2023-04-11T04:26:54.291Z,8.57
2023-04-11T04:30:15.801Z,6.93
2023-04-11T04:33:42.933Z,7.25
2023-04-11T04:36:56.557Z,9.48
2023-04-11T04:40:08.487Z,8.82
2023-04-11T04:43:22.838Z,9.90
2023-04-11T04:46:55.480Z,7.55
2023-04-11T04:50:01.023Z,9.65
2023-04-11T04:53:04.233Z,9.87
2023-04-11T04:56:07.449Z,9.57
2023-04-11T04:59:16.192Z,7.15
2023-04-11T05:02:25.551Z,8.98
2023-04-11T05:05:29.203Z,9.23
2023-04-11T05:08:31.726Z,8.73
2023-04-11T05:11:37.465Z,9.10
2023-04-11T05:14:40.302Z,8.07
2023-04-11T05:17:43.094Z,8.75
2023-04-11T05:20:48.022Z,10.18
2023-04-11T05:23:56.176Z,8.63
2023-04-11T05:27:00.511Z,6.28
2023-04-11T05:30:02.989Z,8.48
2023-04-11T05:33:12.945Z,8.65
2023-04-11T05:36:17.572Z,6.18
2023-04-11T05:39:21.643Z,6.40
2023-04-11T05:42:25.463Z,6.88
2023-04-11T05:45:27.927Z,7.23
2023-04-11T05:48:30.831Z,8.57
2023-04-11T05:51:33.220Z,5.55
2023-04-11T05:54:37.008Z,8.20
2023-04-11T05:57:39.565Z,7.03
2023-04-11T06:00:42.041Z,7.32
2023-04-11T06:03:48.556Z,5.88
2023-04-11T06:06:52.081Z,4.25
2023-04-11T06:09:54.815Z,5.32
2023-04-11T06:12:58.218Z,5.55
2023-04-11T06:16:01.666Z,4.77
2023-04-11T06:19:05.006Z,6.97
2023-04-11T06:22:07.737Z,4.88
2023-04-11T06:25:10.616Z,5.87
2023-04-11T06:28:13.077Z,6.45
2023-04-11T06:31:15.680Z,5.00
2023-04-11T06:34:18.159Z,5.72
2023-04-11T06:37:21.034Z,4.85
2023-04-11T06:40:23.458Z,5.15
2023-04-11T06:43:25.782Z,4.82
2023-04-11T06:46:28.328Z,3.80
2023-04-11T06:49:31.381Z,5.40
2023-04-11T06:52:33.933Z,4.75
2023-04-11T06:55:36.381Z,5.57
2023-04-11T06:58:38.874Z,3.70
2023-04-11T07:01:41.635Z,3.83
2023-04-11T07:04:44.326Z,3.92
2023-04-11T07:07:46.740Z,5.80
2023-04-11T07:10:49.187Z,4.40
2023-04-11T07:13:51.678Z,3.72
2023-04-11T07:16:54.081Z,2.83
2023-04-11T07:19:56.866Z,4.00
2023-04-11T07:22:59.357Z,4.68
2023-04-11T07:26:01.934Z,5.37
2023-04-11T07:29:05.286Z,4.72
2023-04-11T07:32:08.347Z,2.83
2023-04-11T07:35:10.748Z,2.22
2023-04-11T07:38:14.222Z,2.83
2023-04-11T07:41:16.764Z,3.97
2023-04-11T07:44:19.243Z,2.67
2023-04-11T07:47:21.689Z,2.80
2023-04-11T07:50:24.117Z,2.15
2023-04-11T07:53:26.925Z,2.60
2023-04-11T07:56:29.548Z,2.03
2023-04-11T07:59:31.966Z,2.97
2023-04-11T08:02:34.540Z,2.80
2023-04-11T08:05:37.685Z,3.00
2023-04-11T08:08:40.076Z,2.72
2023-04-11T08:11:42.866Z,2.53
2023-04-11T08:14:45.333Z,3.08
2023-04-11T08:17:49.791Z,4.50
2023-04-11T08:20:52.902Z,3.10
2023-04-11T08:23:55.641Z,2.97
2023-04-11T08:26:58.265Z,2.90
2023-04-11T08:30:00.695Z,3.05
2023-04-11T08:33:03.369Z,2.50
2023-04-11T08:36:10.009Z,7.10
2023-04-11T08:39:12.759Z,2.75
2023-04-11T08:42:26.147Z,3.05
2023-04-11T08:45:29.061Z,3.05
2023-04-11T08:48:32.422Z,2.63
2023-04-11T08:51:34.873Z,5.70
2023-04-11T08:54:37.312Z,3.47
2023-04-11T08:57:39.729Z,3.00
2023-04-11T09:00:43.089Z,2.83
2023-04-11T09:03:52.444Z,2.78
2023-04-11T09:07:01.416Z,3.55
2023-04-11T09:10:22.476Z,3.58
2023-04-11T09:13:27.999Z,3.15
2023-04-11T09:16:30.600Z,2.88
2023-04-11T09:19:34.902Z,2.70
2023-04-11T09:22:37.461Z,4.47
2023-04-11T09:25:47.239Z,4.30
2023-04-11T09:28:53.449Z,2.93
2023-04-11T09:31:57.097Z,5.32
2023-04-11T09:35:12.965Z,2.85
2023-04-11T09:38:28.102Z,3.67
2023-04-11T09:41:35.030Z,2.92
2023-04-11T09:44:38.506Z,4.40
2023-04-11T09:47:43.368Z,3.00
2023-04-11T09:50:48.374Z,4.40
2023-04-11T09:53:51.485Z,2.97
2023-04-11T09:56:54.363Z,2.60
2023-04-11T09:59:56.981Z,3.50
2023-04-11T10:02:59.554Z,2.60
2023-04-11T10:06:08.081Z,3.65
2023-04-11T10:09:12.997Z,3.17
2023-04-11T10:12:33.868Z,2.90
2023-04-11T10:15:36.424Z,3.15
2023-04-11T10:18:50.771Z,3.58
2023-04-11T10:21:53.325Z,5.47
2023-04-11T10:25:18.314Z,2.58
2023-04-11T10:28:40.569Z,2.50
2023-04-11T10:32:20.068Z,3.90
2023-04-11T10:35:23.266Z,2.95
2023-04-11T10:38:43.698Z,6.25
2023-04-11T10:41:46.333Z,3.03
2023-04-11T10:45:14.897Z,2.50
2023-04-11T10:48:18.262Z,2.58
2023-04-11T10:51:27.907Z,3.42
2023-04-11T10:54:30.396Z,2.43
2023-04-11T10:58:08.260Z,6.00
2023-04-11T11:01:31.221Z,2.45
2023-04-11T11:04:40.479Z,2.87
2023-04-11T11:07:46.753Z,2.30
2023-04-11T11:10:50.378Z,2.95
2023-04-11T11:13:55.929Z,2.78
2023-04-11T11:16:58.891Z,2.63
2023-04-11T11:20:01.825Z,5.38
2023-04-11T11:23:07.805Z,4.53
2023-04-11T11:26:10.278Z,2.30
2023-04-11T11:29:13.296Z,2.38
2023-04-11T11:32:25.306Z,2.67
2023-04-11T11:35:28.116Z,2.13
2023-04-11T11:38:31.511Z,2.58
2023-04-11T11:41:35.446Z,2.63
2023-04-11T11:44:38.027Z,2.65
2023-04-11T11:47:47.613Z,1.77
2023-04-11T11:50:58.100Z,1.95
2023-04-11T11:54:10.198Z,2.47
2023-04-11T11:57:19.722Z,6.33
2023-04-11T12:00:27.225Z,2.53
2023-04-11T12:03:29.992Z,2.58
2023-04-11T12:06:33.179Z,2.13
2023-04-11T12:09:36.244Z,3.45
2023-04-11T12:12:39.944Z,2.35
2023-04-11T12:15:49.348Z,2.03
2023-04-11T12:18:51.937Z,2.53
2023-04-11T12:21:54.326Z,15.77
2023-04-11T12:25:14.015Z,2.30
2023-04-11T12:28:16.548Z,2.30
2023-04-11T12:31:20.620Z,1.95
2023-04-11T12:34:23.040Z,1.65
2023-04-11T12:37:25.695Z,2.13
2023-04-11T12:40:29.798Z,2.40
2023-04-11T12:43:32.266Z,2.15
2023-04-11T12:46:34.762Z,2.20
2023-04-11T12:49:37.166Z,2.30
2023-04-11T12:52:39.728Z,2.10
2023-04-11T12:55:42.132Z,2.22
2023-04-11T12:58:45.044Z,2.80
2023-04-11T13:01:47.766Z,1.88
2023-04-11T13:04:54.522Z,1.83
2023-04-11T13:07:57.064Z,1.80
2023-04-11T13:10:59.571Z,1.83
2023-04-11T13:14:02.093Z,2.10
2023-04-11T13:17:04.867Z,2.15
2023-04-11T13:20:10.688Z,2.00
2023-04-11T13:23:14.873Z,1.50
2023-04-11T13:26:19.695Z,4.38
2023-04-11T13:29:22.214Z,2.53
2023-04-11T13:32:24.754Z,2.13
2023-04-11T13:35:27.364Z,1.90
2023-04-11T13:38:29.796Z,2.20
2023-04-11T13:41:32.876Z,2.45
2023-04-11T13:44:35.362Z,2.15
2023-04-11T13:47:38.968Z,1.77
2023-04-11T13:50:41.651Z,2.47
2023-04-11T13:53:44.077Z,2.40
2023-04-11T13:56:46.418Z,3.03
2023-04-11T13:59:48.886Z,2.33
2023-04-11T14:02:52.648Z,2.83
2023-04-11T14:05:55.601Z,2.40
2023-04-11T14:08:58.144Z,6.87
2023-04-11T14:12:01.511Z,2.92
2023-04-11T14:15:05.366Z,2.45
2023-04-11T14:18:07.810Z,4.07
2023-04-11T14:21:10.538Z,5.13
2023-04-11T14:24:12.968Z,7.38
2023-04-11T14:27:15.552Z,5.97
2023-04-11T14:30:18.328Z,4.30
2023-04-11T14:33:20.798Z,3.85
2023-04-11T14:36:23.314Z,3.08
2023-04-11T14:39:25.892Z,3.40
2023-04-11T14:42:28.751Z,4.75
2023-04-11T14:45:31.190Z,4.70
2023-04-11T14:48:33.561Z,4.53
2023-04-11T14:51:36.643Z,4.88
2023-04-11T14:54:39.418Z,5.22
2023-04-11T14:58:02.130Z,3.92
2023-04-11T15:01:04.597Z,3.97
2023-04-11T15:04:07.474Z,3.13
2023-04-11T15:07:10.102Z,5.35
2023-04-11T15:10:14.130Z,5.03
2023-04-11T15:13:16.892Z,9.82
2023-04-11T15:16:21.840Z,4.15
2023-04-11T15:19:24.476Z,3.55
2023-04-11T15:22:27.293Z,4.18
2023-04-11T15:25:29.706Z,3.35
2023-04-11T15:28:38.464Z,5.80
2023-04-11T15:31:41.196Z,7.07
2023-04-11T15:34:43.792Z,5.45
2023-04-11T15:37:46.129Z,6.13
2023-04-11T15:40:58.662Z,6.40
2023-04-11T15:44:01.564Z,5.82
2023-04-11T15:47:04.083Z,6.78
2023-04-11T15:50:07.415Z,6.10
2023-04-11T15:53:10.044Z,6.15
2023-04-11T15:56:13.561Z,6.65
2023-04-11T15:59:16.742Z,9.65
2023-04-11T16:02:19.517Z,11.20
2023-04-11T16:05:22.159Z,11.05
2023-04-11T16:08:26.270Z,8.95
2023-04-11T16:11:28.825Z,8.07
2023-04-11T16:14:31.541Z,7.50
2023-04-11T16:17:34.177Z,7.47
2023-04-11T16:20:36.765Z,6.60
2023-04-11T16:23:39.449Z,8.25
2023-04-11T16:26:41.876Z,7.25
2023-04-11T16:29:44.329Z,7.10
2023-04-11T16:32:47.429Z,7.03
2023-04-11T16:35:49.884Z,6.47
2023-04-11T16:38:52.499Z,6.38
2023-04-11T16:41:55.976Z,8.53
2023-04-11T16:44:58.755Z,6.88
2023-04-11T16:48:01.224Z,8.32
2023-04-11T16:51:03.928Z,9.30
2023-04-11T16:54:09.897Z,7.68
2023-04-11T16:57:12.312Z,8.82
2023-04-11T17:00:17.122Z,10.30
2023-04-11T17:03:20.108Z,7.87
2023-04-11T17:06:22.743Z,7.22
2023-04-11T17:09:25.260Z,9.05
2023-04-11T17:12:28.213Z,8.07
2023-04-11T17:15:30.811Z,10.38
2023-04-11T17:18:33.619Z,10.88
2023-04-11T17:21:36.704Z,11.18
2023-04-11T17:24:40.078Z,10.57
2023-04-11T17:27:42.481Z,15.38
2023-04-11T17:33:49.543Z,18.63
2023-04-11T17:36:52.751Z,45.47
2023-04-11T17:39:55.755Z,40.72
2023-04-11T17:42:58.180Z,30.60
2023-04-11T17:46:01.683Z,20.25
2023-04-11T17:49:04.556Z,19.55
2023-04-11T17:52:06.954Z,21.98
2023-04-11T17:55:11.276Z,20.27
2023-04-11T17:58:14.334Z,27.80
2023-04-11T18:01:17.000Z,33.92
2023-04-11T18:04:19.758Z,42.70
2023-04-11T18:07:24.511Z,33.25
2023-04-11T18:10:28.802Z,21.08
2023-04-11T18:13:31.687Z,20.10
2023-04-11T18:16:35.647Z,21.13
2023-04-11T18:19:38.211Z,14.35
2023-04-11T18:22:47.108Z,12.57
2023-04-11T18:25:49.574Z,12.57
2023-04-11T18:28:51.982Z,17.10
2023-04-11T18:32:20.454Z,16.15
2023-04-11T18:35:18.449Z,32.73
2023-04-11T18:38:21.240Z,33.83
2023-04-11T18:41:24.906Z,27.38
2023-04-11T18:44:27.614Z,36.27
2023-04-11T18:47:30.489Z,25.55
2023-04-11T18:50:38.533Z,19.67
2023-04-11T18:53:41.746Z,16.00
2023-04-11T18:56:47.858Z,12.32
2023-04-11T18:59:54.956Z,20.80
2023-04-11T19:02:58.576Z,15.35
2023-04-11T19:06:02.097Z,27.90
2023-04-11T19:09:04.639Z,39.90
2023-04-11T19:12:07.443Z,17.15
2023-04-11T19:15:10.965Z,14.60
2023-04-11T19:18:13.537Z,13.95
2023-04-11T19:21:17.249Z,10.38
2023-04-11T19:24:19.906Z,12.43
2023-04-11T19:27:23.460Z,16.23
2023-04-11T19:30:28.639Z,17.50
2023-04-11T19:33:31.476Z,18.67
2023-04-11T19:36:34.318Z,15.83
2023-04-11T19:39:38.106Z,14.32
2023-04-11T19:42:41.620Z,10.85
2023-04-11T19:45:46.198Z,9.47
2023-04-11T19:48:49.005Z,7.28
2023-04-11T19:51:52.533Z,9.95
2023-04-11T19:54:56.606Z,8.40
2023-04-11T19:57:59.269Z,6.72
2023-04-11T20:01:02.920Z,5.28
2023-04-11T20:04:06.309Z,3.83
2023-04-11T20:07:09.319Z,5.03
2023-04-11T20:10:13.475Z,4.13
2023-04-11T20:13:19.167Z,3.30
2023-04-11T20:16:23.219Z,4.00
2023-04-11T20:19:29.725Z,5.07
2023-04-11T20:22:32.965Z,2.92
2023-04-11T20:25:35.875Z,1.52
2023-04-11T20:28:39.581Z,1.27
2023-04-11T20:31:42.089Z,1.20
2023-04-11T20:34:44.515Z,1.27
2023-04-11T20:37:47.869Z,3.17
2023-04-11T20:40:50.556Z,3.10
2023-04-11T20:43:52.967Z,3.03
2023-04-11T20:46:57.010Z,2.47
2023-04-11T20:50:04.148Z,2.78
2023-04-11T20:53:06.653Z,2.97
2023-04-11T20:56:09.000Z,1.83
2023-04-11T20:59:14.557Z,2.17
2023-04-11T21:02:17.400Z,1.50
2023-04-11T21:05:25.006Z,3.15
2023-04-11T21:08:28.140Z,3.53
2023-04-11T21:11:30.622Z,4.28
2023-04-11T21:14:33.326Z,2.92
2023-04-11T21:17:36.039Z,2.60
2023-04-11T21:20:40.214Z,0.45
2023-04-11T21:23:43.518Z,1.20
2023-04-11T21:26:47.042Z,1.55
2023-04-11T21:29:49.768Z,0.77
2023-04-11T21:32:52.440Z,1.13
2023-04-11T21:35:55.429Z,1.10
2023-04-11T21:38:58.075Z,1.13
2023-04-11T21:42:01.592Z,1.70
2023-04-11T21:45:04.199Z,0.70
2023-04-11T21:48:06.669Z,1.67
2023-04-11T21:51:10.528Z,1.52
2023-04-11T21:54:12.889Z,1.85
2023-04-11T21:57:15.423Z,1.15
2023-04-11T22:00:18.209Z,1.27
2023-04-11T22:03:20.949Z,0.95
2023-04-11T22:06:25.328Z,1.63
2023-04-11T22:09:27.776Z,1.40
2023-04-11T22:12:30.253Z,1.00
2023-04-11T22:15:33.237Z,1.63
2023-04-11T22:18:46.750Z,1.37
2023-04-11T22:21:55.573Z,2.42
2023-04-11T22:24:59.248Z,1.05
2023-04-11T22:28:02.228Z,1.35
2023-04-11T22:31:05.367Z,2.42
2023-04-11T22:34:10.376Z,1.83
2023-04-11T22:37:12.758Z,1.65
2023-04-11T22:40:19.044Z,2.23
2023-04-11T22:43:22.508Z,1.92
2023-04-11T22:46:25.638Z,1.13
2023-04-11T22:49:28.037Z,1.23
2023-04-11T22:52:30.716Z,1.20
2023-04-11T22:55:35.866Z,1.77
2023-04-11T22:58:39.551Z,2.15
2023-04-11T23:01:44.821Z,1.95
2023-04-11T23:04:47.291Z,2.92
2023-04-11T23:07:50.165Z,2.83
2023-04-11T23:10:53.142Z,2.13
2023-04-11T23:13:55.639Z,1.13
2023-04-11T23:16:58.408Z,1.83
2023-04-11T23:20:02.911Z,1.53
2023-04-11T23:23:05.709Z,1.77
2023-04-11T23:26:08.116Z,1.80
2023-04-11T23:29:11.056Z,1.30
2023-04-11T23:32:13.663Z,2.03
2023-04-11T23:35:19.469Z,1.73
2023-04-11T23:38:23.548Z,1.88
2023-04-11T23:41:25.986Z,0.97
2023-04-11T23:44:28.551Z,1.67
2023-04-11T23:47:30.899Z,2.38
2023-04-11T23:50:33.345Z,1.07
2023-04-11T23:53:35.720Z,1.33
2023-04-11T23:56:38.071Z,0.85
2023-04-11T23:59:40.516Z,1.10
